Time;durP1;ratioP1;P1;durP2;ratioP2;P2;SDS_P1;SDS_P2;PMS_P1;PMS_P2;Temp;Humidity;BMP_temperature;BMP_pressure;BME280_temperature;BME280_humidity;BME280_pressure;Samples;Min_cycle;Max_cycle;Signal;HPM_P1;HPM_P2
2022/10/28 00:01:14;;;;;;;9.63;2.60;;;;;;;-145.69;100.00;52416.66;5113988;28;20434;-84
2022/10/28 00:03:43;;;;;;;10.32;2.20;;;;;;;-145.69;100.00;52402.78;5115397;28;20684;-83
2022/10/28 00:06:12;;;;;;;11.23;2.42;;;;;;;-145.69;100.00;52404.78;5115144;28;20208;-83
2022/10/28 00:08:39;;;;;;;10.13;2.35;;;;;;;-145.69;100.00;52424.59;5115027;28;20196;-83
2022/10/28 00:11:07;;;;;;;16.38;2.13;;;;;;;-145.69;100.00;52402.78;5114985;28;20683;-84
2022/10/28 00:13:36;;;;;;;13.70;2.50;;;;;;;-145.69;100.00;52420.63;5115005;28;20655;-84
2022/10/28 00:16:08;;;;;;;15.50;2.13;;;;;;;-145.69;100.00;52420.63;5115142;28;20220;-84
2022/10/28 00:18:35;;;;;;;9.50;2.78;;;;;;;-145.69;100.00;52404.78;5135080;27;20196;-85
2022/10/28 00:21:02;;;;;;;12.90;2.60;;;;;;;-145.69;100.00;52402.78;5156125;27;20577;-84
2022/10/28 00:23:29;;;;;;;11.85;2.60;;;;;;;-145.69;100.00;52412.69;5156413;27;20204;-83
2022/10/28 00:26:03;;;;;;;16.88;2.50;;;;;;;-145.69;100.00;52404.78;5156179;27;20286;-84
2022/10/28 00:28:29;;;;;;;13.65;3.03;;;;;;;-145.69;100.00;52410.72;5156498;27;20196;-84
2022/10/28 00:31:03;;;;;;;13.25;2.88;;;;;;;-145.69;100.00;52414.69;5156150;27;20216;-83
2022/10/28 00:33:29;;;;;;;7.18;2.17;;;;;;;-145.69;100.00;52392.91;5155731;27;20318;-83
2022/10/28 00:35:56;;;;;;;14.15;2.70;;;;;;;-145.69;100.00;52383.00;5150019;27;20193;-85
2022/10/28 00:38:23;;;;;;;15.88;2.88;;;;;;;-145.69;100.00;52432.50;5144747;27;20202;-84
2022/10/28 00:40:49;;;;;;;11.85;1.98;;;;;;;-145.69;100.00;52400.81;5155919;27;20598;-84
2022/10/28 00:43:16;;;;;;;12.50;2.42;;;;;;;-145.69;100.00;52426.56;5155774;27;20196;-84
2022/10/28 00:45:42;;;;;;;13.00;2.80;;;;;;;-145.69;100.00;52412.69;5155875;27;20196;-84
2022/10/28 00:48:10;;;;;;;10.68;2.20;;;;;;;-145.69;100.00;52408.75;5155637;27;20207;-84
2022/10/28 00:50:45;;;;;;;13.75;2.40;;;;;;;-145.69;100.00;52418.63;5156038;27;20200;-84
2022/10/28 00:53:15;;;;;;;11.65;2.83;;;;;;;-145.69;100.00;52396.84;5155749;27;20287;-84
2022/10/28 00:55:44;;;;;;;15.27;2.35;;;;;;;-145.69;100.00;52398.84;5155565;27;20912;-84
2022/10/28 00:58:12;;;;;;;9.82;2.45;;;;;;;-145.69;100.00;52416.66;5155602;27;20671;-81
2022/10/28 01:00:38;;;;;;;22.92;2.75;;;;;;;-145.69;100.00;52384.97;5155401;27;20204;-84
2022/10/28 01:03:05;;;;;;;9.98;2.25;;;;;;;-145.69;100.00;52408.75;5155480;27;20562;-84
2022/10/28 01:05:37;;;;;;;7.60;2.30;;;;;;;-145.69;100.00;52377.06;5155569;27;20646;-84
2022/10/28 01:08:05;;;;;;;9.18;2.42;;;;;;;-145.69;100.00;52408.75;5148129;27;20708;-83
2022/10/28 01:10:51;;;;;;;7.07;2.38;;;;;;;-145.69;100.00;52416.66;5138207;27;20638;-84
2022/10/28 01:13:26;;;;;;;10.70;2.30;;;;;;;-145.69;100.00;52384.97;5142394;27;20323;-84
2022/10/28 01:16:00;;;;;;;11.20;2.55;;;;;;;-145.69;100.00;52418.63;5155450;27;20385;-84
2022/10/28 01:18:35;;;;;;;10.63;2.33;;;;;;;-145.69;100.00;52392.91;5137197;27;20686;-84
2022/10/28 01:21:33;;;;;;;12.88;2.67;;;;;;;-145.69;100.00;52406.75;5134400;27;20682;-84
2022/10/28 01:24:15;;;;;;;6.90;1.92;;;;;;;-145.69;100.00;52416.66;5134384;27;20668;-84
2022/10/28 01:27:06;;;;;;;10.02;2.17;;;;;;;-145.69;100.00;52361.22;5134450;27;20196;-84
2022/10/28 01:29:49;;;;;;;10.90;3.10;;;;;;;-145.69;100.00;52375.06;5134189;27;20773;-84
2022/10/28 01:32:28;;;;;;;12.90;2.38;;;;;;;-145.69;100.00;52408.75;5134305;27;20224;-83
2022/10/28 01:35:06;;;;;;;15.00;2.40;;;;;;;-145.69;100.00;52410.72;5093463;28;20204;-84
2022/10/28 01:37:36;;;;;;;14.93;2.85;;;;;;;-145.69;100.00;52418.63;5093114;28;20197;-84
2022/10/28 01:40:10;;;;;;;11.65;2.40;;;;;;;-145.69;100.00;52420.63;5093234;28;20225;-84
2022/10/28 01:42:44;;;;;;;11.02;2.17;;;;;;;-145.69;100.00;52365.16;5093501;28;20208;-84
2022/10/28 01:45:15;;;;;;;10.18;1.98;;;;;;;-145.69;100.00;52416.66;5093272;28;20201;-84
2022/10/28 01:47:50;;;;;;;10.98;2.47;;;;;;;-145.69;100.00;52426.56;5082816;28;20206;-83
2022/10/28 01:50:22;;;;;;;16.20;2.47;;;;;;;-145.69;100.00;52406.75;5073260;28;20194;-83
2022/10/28 01:52:51;;;;;;;12.73;2.35;;;;;;;-145.69;100.00;52404.78;5072679;28;20244;-84
2022/10/28 01:55:23;;;;;;;3.60;1.63;;;;;;;-145.69;100.00;52404.78;5073034;28;20221;-84
2022/10/28 01:57:52;;;;;;;11.82;2.40;;;;;;;-145.69;100.00;52416.66;5073251;28;20201;-84
2022/10/28 02:00:19;;;;;;;7.78;1.88;;;;;;;-145.69;100.00;52404.78;5073119;28;20228;-84
2022/10/28 02:02:48;;;;;;;10.68;2.20;;;;;;;-145.69;100.00;52420.63;5072885;28;20206;-84
2022/10/28 02:05:39;;;;;;;5.97;2.08;;;;;;;-145.69;100.00;52432.50;5072644;28;20199;-84
2022/10/28 02:08:24;;;;;;;12.57;2.50;;;;;;;-145.69;100.00;52388.94;5091385;28;20190;-84
2022/10/28 02:11:00;;;;;;;9.88;1.83;;;;;;;-145.69;100.00;52396.84;5096168;28;20193;-84
2022/10/28 02:13:36;;;;;;;11.27;1.73;;;;;;;-145.69;100.00;52426.56;5112934;28;20228;-83
2022/10/28 02:16:11;;;;;;;4.63;1.63;;;;;;;-145.69;100.00;52392.91;5113167;28;20197;-84
2022/10/28 02:18:48;;;;;;;8.43;1.75;;;;;;;-145.69;100.00;52430.53;5113457;28;20197;-84
2022/10/28 02:21:24;;;;;;;6.75;1.75;;;;;;;-145.69;100.00;52402.78;5113393;28;20270;-84
2022/10/28 02:23:56;;;;;;;7.07;1.50;;;;;;;-145.69;100.00;52412.69;5115068;28;20200;-83
2022/10/28 02:26:31;;;;;;;4.72;1.70;;;;;;;-145.69;100.00;52416.66;5117655;28;20197;-83
2022/10/28 02:29:03;;;;;;;9.35;2.10;;;;;;;-145.69;100.00;52400.81;5117300;28;20559;-84
2022/10/28 02:31:35;;;;;;;8.63;1.88;;;;;;;-145.69;100.00;52377.06;5117244;28;20225;-84
2022/10/28 02:34:09;;;;;;;6.20;1.95;;;;;;;-145.69;100.00;52394.88;5144095;27;20231;-83
2022/10/28 02:36:39;;;;;;;9.02;1.90;;;;;;;-145.69;100.00;52386.97;5158295;27;20206;-84
2022/10/28 02:39:07;;;;;;;7.10;1.48;;;;;;;-145.69;100.00;52398.84;5140244;27;20196;-83
2022/10/28 02:41:40;;;;;;;12.13;2.30;;;;;;;-145.69;100.00;52388.94;5137469;27;20676;-83
2022/10/28 02:44:10;;;;;;;7.65;1.60;;;;;;;-145.69;98.23;52365.16;5137529;27;20207;-84
2022/10/28 02:46:42;;;;;;;14.27;2.10;;;;;;;-145.69;95.23;52377.06;5137853;27;20207;-83
2022/10/28 02:49:12;;;;;;;7.25;1.58;;;;;;;-145.69;98.74;52349.31;5137361;27;20209;-84
2022/10/28 02:51:44;;;;;;;13.80;1.73;;;;;;;-145.69;94.57;52365.16;5137570;27;20250;-84
2022/10/28 02:54:14;;;;;;;7.78;1.42;;;;;;;-145.69;97.58;52371.13;5137153;27;20203;-84
2022/10/28 02:56:47;;;;;;;11.82;1.45;;;;;;;-145.69;100.00;52404.78;5137207;27;20211;-83
2022/10/28 02:59:13;;;;;;;12.02;1.60;;;;;;;-145.69;100.00;52400.81;5137040;27;20647;-83
2022/10/28 03:01:40;;;;;;;8.70;1.70;;;;;;;-145.69;100.00;52373.09;5137360;27;20208;-84
2022/10/28 03:04:06;;;;;;;5.20;1.45;;;;;;;-145.69;100.00;52408.75;5137006;27;20196;-84
2022/10/28 03:06:34;;;;;;;9.30;1.75;;;;;;;-145.69;100.00;52432.50;5136898;27;20208;-83
2022/10/28 03:09:01;;;;;;;7.90;1.75;;;;;;;-145.69;100.00;52412.69;5153298;27;20200;-84
2022/10/28 03:11:27;;;;;;;12.45;1.88;;;;;;;-145.69;99.20;52377.06;5157762;27;20196;-84
2022/10/28 03:13:54;;;;;;;5.47;1.77;;;;;;;-145.69;99.52;52361.22;5157496;27;20206;-84
2022/10/28 03:16:20;;;;;;;10.65;1.30;;;;;;;-145.69;100.00;52381.00;5157079;27;20279;-84
2022/10/28 03:18:47;;;;;;;5.47;1.83;;;;;;;-145.69;100.00;52392.91;5157732;27;20200;-84
2022/10/28 03:21:13;;;;;;;9.00;1.60;;;;;;;-145.69;100.00;52398.84;5157500;27;20211;-84
2022/10/28 03:23:41;;;;;;;7.35;1.38;;;;;;;-145.69;100.00;52381.00;5157513;27;20229;-84
2022/10/28 03:26:08;;;;;;;12.85;1.58;;;;;;;-145.69;100.00;52398.84;5157267;27;20199;-83
2022/10/28 03:28:34;;;;;;;9.75;1.70;;;;;;;-145.69;96.49;52361.22;5157249;27;20196;-84
2022/10/28 03:31:01;;;;;;;11.40;1.73;;;;;;;-145.69;100.00;52361.22;5155968;27;20434;-84
2022/10/28 03:33:27;;;;;;;10.10;1.80;;;;;;;-145.69;100.00;52400.81;5156996;27;20254;-83
2022/10/28 03:35:54;;;;;;;3.63;1.50;;;;;;;-145.69;100.00;52390.91;5156218;27;20291;-83
2022/10/28 03:38:20;;;;;;;12.00;2.53;;;;;;;-145.69;100.00;52386.97;5154968;27;20199;-84
2022/10/28 03:40:49;;;;;;;8.48;1.40;;;;;;;-145.69;98.76;52377.06;5134600;27;20204;-83
2022/10/28 03:43:18;;;;;;;6.45;1.48;;;;;;;-145.69;98.98;52384.97;5115610;28;20228;-85
2022/10/28 03:45:45;;;;;;;8.80;2.05;;;;;;;-145.69;85.30;52373.09;5115879;28;20205;-83
2022/10/28 03:48:11;;;;;;;8.80;1.35;;;;;;;-145.69;99.06;52367.16;5115600;28;20202;-84
2022/10/28 03:50:38;;;;;;;4.90;1.75;;;;;;;-145.69;98.18;52369.13;5137735;27;20200;-84
2022/10/28 03:53:04;;;;;;;12.05;1.77;;;;;;;-145.69;100.00;52355.28;5156536;27;20224;-84
2022/10/28 03:55:31;;;;;;;12.98;1.48;;;;;;;-145.69;100.00;52345.38;5156606;27;20200;-83
2022/10/28 03:58:01;;;;;;;8.20;1.48;;;;;;;-145.69;100.00;52377.06;5157342;27;20206;-84
2022/10/28 04:00:29;;;;;;;4.95;1.70;;;;;;;-145.69;100.00;52388.94;5157073;27;20201;-84
2022/10/28 04:02:56;;;;;;;14.82;1.77;;;;;;;-145.69;100.00;52383.00;5156536;27;20200;-83
2022/10/28 04:05:22;;;;;;;7.00;1.75;;;;;;;-145.69;100.00;52375.06;5156902;27;20200;-84
2022/10/28 04:07:52;;;;;;;12.35;1.65;;;;;;;-145.69;97.38;52373.09;5150022;27;20547;-83
2022/10/28 04:10:19;;;;;;;7.93;1.48;;;;;;;-145.69;100.00;52396.84;5135695;27;20657;-84
2022/10/28 04:12:46;;;;;;;4.32;1.50;;;;;;;-145.69;100.00;52383.00;5137225;27;20231;-84
2022/10/28 04:15:14;;;;;;;4.70;1.77;;;;;;;-145.69;100.00;52381.00;5156258;27;20203;-83
2022/10/28 04:17:40;;;;;;;5.82;1.70;;;;;;;-145.69;100.00;52373.09;5156257;27;20192;-84
2022/10/28 04:20:08;;;;;;;10.73;1.80;;;;;;;-145.69;100.00;52390.91;5156307;27;20199;-84
2022/10/28 04:22:34;;;;;;;10.40;1.67;;;;;;;-145.69;100.00;52392.91;5156128;27;20199;-83
2022/10/28 04:25:01;;;;;;;12.02;1.60;;;;;;;-145.69;100.00;52369.13;5156102;27;20196;-84
2022/10/28 04:27:27;;;;;;;6.70;2.08;;;;;;;-145.69;100.00;52379.03;5156474;27;20284;-84
2022/10/28 04:29:54;;;;;;;12.68;1.55;;;;;;;-145.69;100.00;52386.97;5156242;27;20203;-83
2022/10/28 04:32:22;;;;;;;8.48;1.77;;;;;;;-145.69;100.00;52353.28;5155964;27;20247;-84
2022/10/28 04:34:48;;;;;;;8.30;1.50;;;;;;;-145.69;100.00;52384.97;5155817;27;20313;-84
2022/10/28 04:37:15;;;;;;;13.27;1.77;;;;;;;-145.69;93.07;52388.94;5155821;27;20290;-83
2022/10/28 04:39:41;;;;;;;10.05;1.52;;;;;;;-145.69;93.67;52361.22;5156083;27;20675;-83
2022/10/28 04:42:08;;;;;;;10.10;1.80;;;;;;;-145.69;87.57;52369.13;5155735;27;20283;-84
2022/10/28 04:44:35;;;;;;;13.82;1.85;;;;;;;-145.69;80.71;52345.38;5139011;27;20288;-84
2022/10/28 04:47:01;;;;;;;7.22;1.20;;;;;;;-145.69;78.20;52337.44;5134921;27;20203;-84
2022/10/28 04:49:29;;;;;;;6.57;1.25;;;;;;;-145.69;78.36;52365.16;5134599;27;20215;-83
2022/10/28 04:51:55;;;;;;;10.80;1.55;;;;;;;-145.69;79.77;52351.31;5134611;27;20200;-84
2022/10/28 04:54:22;;;;;;;6.55;1.45;;;;;;;-145.69;78.41;52361.22;5135129;27;20236;-84
2022/10/28 04:56:48;;;;;;;5.57;1.60;;;;;;;-145.69;82.08;52373.09;5134956;27;20204;-84
2022/10/28 04:59:15;;;;;;;5.38;1.55;;;;;;;-145.69;82.13;52359.22;5134953;27;20197;-84
2022/10/28 05:01:42;;;;;;;6.57;1.27;;;;;;;-145.69;81.61;52347.34;5134688;27;20666;-84
2022/10/28 05:04:08;;;;;;;6.35;1.83;;;;;;;-145.69;75.84;52357.25;5134506;27;20555;-84
2022/10/28 05:06:36;;;;;;;6.38;1.40;;;;;;;-145.69;80.10;52333.47;5136300;27;20949;-84
2022/10/28 05:09:02;;;;;;;8.15;1.17;;;;;;;-145.69;84.52;52357.25;5155379;27;20192;-84
2022/10/28 05:11:29;;;;;;;9.02;1.33;;;;;;;-145.69;87.57;52349.31;5155348;27;20203;-84
2022/10/28 05:13:56;;;;;;;7.82;1.55;;;;;;;-145.69;87.80;52349.31;5155092;27;20234;-85
2022/10/28 05:16:22;;;;;;;8.80;1.48;;;;;;;-145.69;85.64;52357.25;5155293;27;20202;-84
2022/10/28 05:18:49;;;;;;;6.30;1.27;;;;;;;-145.69;80.20;52333.47;5155093;27;20231;-84
2022/10/28 05:21:16;;;;;;;3.88;1.27;;;;;;;-145.69;78.63;52367.16;5155049;27;20536;-84
2022/10/28 05:23:44;;;;;;;7.55;1.77;;;;;;;-145.69;75.07;52349.31;5155458;27;20235;-84
2022/10/28 05:26:10;;;;;;;4.93;1.00;;;;;;;-145.69;74.28;52309.72;5155278;27;20203;-84
2022/10/28 05:28:37;;;;;;;10.43;1.92;;;;;;;-145.69;72.83;52361.22;5151874;27;20188;-84
2022/10/28 05:31:03;;;;;;;5.22;1.52;;;;;;;-145.69;70.01;52335.47;5130772;27;20193;-84
2022/10/28 05:33:30;;;;;;;6.32;1.48;;;;;;;-145.69;71.52;52305.75;5133764;27;20243;-83
2022/10/28 05:35:58;;;;;;;9.57;1.40;;;;;;;-145.69;71.88;52349.31;5134413;27;20200;-84
2022/10/28 05:38:25;;;;;;;3.75;1.10;;;;;;;-145.69;72.27;52329.53;5134070;27;20659;-84
2022/10/28 05:40:53;;;;;;;5.70;1.30;;;;;;;-145.69;75.07;52325.56;5134006;27;20204;-84
2022/10/28 05:43:20;;;;;;;2.75;1.35;;;;;;;-145.69;86.49;52331.50;5132744;27;20200;-84
2022/10/28 05:45:52;;;;;;;6.07;1.27;;;;;;;-145.69;77.62;52305.75;5134039;27;20192;-83
2022/10/28 05:48:18;;;;;;;4.65;1.30;;;;;;;-145.69;69.24;52353.28;5134025;27;20211;-83
2022/10/28 05:50:45;;;;;;;3.35;1.20;;;;;;;-145.69;74.12;52333.47;5134056;27;20681;-84
2022/10/28 05:53:12;;;;;;;8.57;1.25;;;;;;;-145.69;75.00;52317.66;5133931;27;20220;-84
2022/10/28 05:55:38;;;;;;;5.93;1.42;;;;;;;-145.69;73.94;52335.47;5133810;27;20633;-84
2022/10/28 05:58:06;;;;;;;5.43;1.30;;;;;;;-145.69;68.94;52317.66;5133471;27;20242;-84
2022/10/28 06:00:33;;;;;;;2.97;1.38;;;;;;;-145.69;77.31;52317.66;5153464;27;20626;-84
2022/10/28 06:03:08;;;;;;;4.22;1.00;;;;;;;-145.69;81.42;52319.63;5154486;27;20206;-83
2022/10/28 06:05:34;;;;;;;7.57;1.35;;;;;;;-145.69;81.82;52323.59;5154368;27;20195;-84
2022/10/28 06:08:01;;;;;;;10.38;1.40;;;;;;;-145.69;78.64;52339.44;5154387;27;20235;-84
2022/10/28 06:10:28;;;;;;;7.53;1.33;;;;;;;-145.69;82.70;52357.25;5154686;27;20200;-83
2022/10/28 06:12:55;;;;;;;2.72;1.10;;;;;;;-145.69;80.50;52297.84;5148669;27;20217;-84
2022/10/28 06:15:22;;;;;;;7.32;1.13;;;;;;;-145.69;80.67;52343.38;5133624;27;20608;-84
2022/10/28 06:17:49;;;;;;;5.65;1.17;;;;;;;-145.69;80.71;52333.47;5134279;27;20196;-83
2022/10/28 06:20:17;;;;;;;10.95;1.95;;;;;;;-145.69;79.06;52329.53;5154400;27;20207;-84
2022/10/28 06:22:48;;;;;;;4.03;1.30;;;;;;;-145.69;83.53;52309.72;5154280;27;20204;-84
2022/10/28 06:25:14;;;;;;;6.53;1.17;;;;;;;-145.69;89.16;52325.56;5151743;27;20521;-84
2022/10/28 06:27:41;;;;;;;9.48;1.30;;;;;;;-145.69;78.65;52333.47;5133538;28;20482;-84
2022/10/28 06:30:08;;;;;;;5.45;1.30;;;;;;;-145.69;77.30;52337.44;5133600;27;20433;-84
2022/10/28 06:32:36;;;;;;;5.60;1.40;;;;;;;-145.69;79.66;52313.69;5133268;28;20197;-83
2022/10/28 06:35:03;;;;;;;3.00;1.00;;;;;;;-145.69;80.54;52345.38;5133715;28;20212;-83
2022/10/28 06:37:29;;;;;;;8.23;1.30;;;;;;;-145.69;80.22;52305.75;5133644;27;20224;-84
2022/10/28 06:39:57;;;;;;;5.25;1.15;;;;;;;-145.69;76.83;52335.47;5139290;27;20193;-84
2022/10/28 06:42:24;;;;;;;4.82;1.08;;;;;;;-145.69;69.63;52331.50;5154114;27;20232;-83
2022/10/28 06:44:51;;;;;;;11.98;1.58;;;;;;;-145.69;71.39;52323.59;5154155;27;20201;-83
2022/10/28 06:47:17;;;;;;;5.63;1.42;;;;;;;-145.69;67.22;52323.59;5154326;27;20603;-83
2022/10/28 06:49:45;;;;;;;4.25;1.15;;;;;;;-145.69;71.01;52319.63;5154166;27;20200;-84
2022/10/28 06:52:11;;;;;;;6.72;1.30;;;;;;;-145.69;72.11;52335.47;5154191;27;20626;-83
2022/10/28 06:54:38;;;;;;;5.03;1.42;;;;;;;-145.69;72.38;52321.59;5154028;27;20228;-83
2022/10/28 06:57:05;;;;;;;5.63;1.40;;;;;;;-145.69;74.89;52321.59;5153903;27;20199;-83
2022/10/28 06:59:31;;;;;;;5.65;1.48;;;;;;;-145.69;85.50;52331.50;5152333;27;20196;-83
2022/10/28 07:01:58;;;;;;;5.13;1.60;;;;;;;-145.69;76.48;52325.56;5154095;27;20238;-83
2022/10/28 07:04:24;;;;;;;6.43;1.42;;;;;;;-145.69;80.61;52315.66;5153111;27;20790;-84
2022/10/28 07:06:54;;;;;;;10.10;2.10;;;;;;;-145.69;77.80;52341.41;5153993;27;20214;-84
2022/10/28 07:09:21;;;;;;;5.68;1.52;;;;;;;-145.69;73.57;52260.22;5153808;27;20290;-83
2022/10/28 07:11:48;;;;;;;3.35;1.08;;;;;;;-145.69;67.38;52297.84;5157101;27;20207;-83
2022/10/28 07:14:15;;;;;;;7.30;1.40;;;;;;;-145.69;68.65;52317.66;5144508;27;20385;-85
2022/10/28 07:16:42;;;;;;;7.72;1.95;;;;;;;-145.69;63.64;52301.81;5137033;27;20201;-83
2022/10/28 07:19:09;;;;;;;5.15;1.40;;;;;;;-145.69;65.86;52262.19;5136944;27;20199;-83
2022/10/28 07:21:36;;;;;;;7.80;1.10;;;;;;;-145.69;64.27;52276.06;5136732;27;20204;-84
2022/10/28 07:24:04;;;;;;;3.42;1.27;;;;;;;-145.69;57.60;52291.91;5136746;27;20201;-83
2022/10/28 07:26:33;;;;;;;8.93;1.25;;;;;;;-145.69;57.15;52250.31;5136739;27;20258;-82
2022/10/28 07:28:59;;;;;;;5.60;1.20;;;;;;;-145.69;57.03;52282.00;5142612;27;20199;-82
2022/10/28 07:31:26;;;;;;;4.03;0.90;;;;;;;-145.69;65.61;52260.22;5157244;27;20687;-82
2022/10/28 07:33:53;;;;;;;4.97;1.00;;;;;;;-145.69;58.59;52293.88;5156815;27;20261;-82
2022/10/28 07:36:20;;;;;;;7.50;1.20;;;;;;;-145.69;59.80;52282.00;5119201;27;20254;-81
2022/10/28 07:38:50;;;;;;;5.78;1.38;;;;;;;-145.69;60.68;52313.69;5115625;28;20201;-82
2022/10/28 07:41:20;;;;;;;4.28;1.08;;;;;;;-145.69;53.83;52262.19;5115978;28;20201;-82
2022/10/28 07:43:52;;;;;;;4.03;1.20;;;;;;;-145.69;54.38;52250.31;5117209;27;20245;-82
2022/10/28 07:46:19;;;;;;;7.63;1.30;;;;;;;-145.69;57.87;52234.47;5136686;27;20204;-81
2022/10/28 07:48:46;;;;;;;5.47;0.90;;;;;;;-145.69;52.84;52254.28;5136158;27;20208;-80
2022/10/28 07:51:15;;;;;;;7.35;1.08;;;;;;;-145.69;55.26;52254.28;5136173;27;20200;-81
2022/10/28 07:53:44;;;;;;;7.47;1.60;;;;;;;-145.69;50.07;52230.50;5136084;27;20728;-80
2022/10/28 07:56:13;;;;;;;5.18;1.20;;;;;;;-145.69;55.49;52258.22;5136200;27;20200;-82
2022/10/28 07:58:43;;;;;;;6.55;1.52;;;;;;;-145.69;61.23;52256.25;5143174;27;20196;-82
2022/10/28 08:01:12;;;;;;;6.55;1.17;;;;;;;-145.69;58.94;52289.91;5156579;27;20211;-81
2022/10/28 08:03:39;;;;;;;4.20;1.17;;;;;;;-145.69;61.71;52252.28;5155946;27;20658;-82
2022/10/28 08:06:14;;;;;;;3.90;1.20;;;;;;;-145.69;57.69;52220.59;5156882;27;20192;-82
2022/10/28 08:08:41;;;;;;;2.85;1.00;;;;;;;-145.69;54.07;52222.59;5155862;27;20199;-81
2022/10/28 08:11:11;;;;;;;5.45;1.50;;;;;;;-145.69;54.30;52244.38;5156489;27;20289;-83
2022/10/28 08:13:38;;;;;;;7.15;1.33;;;;;;;-145.69;49.59;52254.28;5156269;27;20720;-81
2022/10/28 08:16:06;;;;;;;5.70;1.40;;;;;;;-145.69;48.36;52252.28;5156170;27;20218;-81
2022/10/28 08:18:33;;;;;;;6.70;1.30;;;;;;;-145.69;52.48;52246.34;5156801;27;20279;-82
2022/10/28 08:21:00;;;;;;;7.72;1.13;;;;;;;-145.69;51.76;52230.50;5155888;27;20196;-82
2022/10/28 08:23:27;;;;;;;8.20;1.38;;;;;;;-145.69;50.91;52218.63;5156497;27;20211;-80
2022/10/28 08:25:54;;;;;;;10.60;1.38;;;;;;;-145.69;49.80;52179.03;5156133;27;20188;-81
2022/10/28 08:28:23;;;;;;;15.75;1.38;;;;;;;-145.69;48.55;52238.44;5156039;27;20217;-82
2022/10/28 08:30:50;;;;;;;6.70;1.30;;;;;;;-145.69;48.14;52184.97;5156301;27;20199;-82
2022/10/28 08:33:20;;;;;;;7.97;1.02;;;;;;;-145.69;49.28;52202.78;5155759;27;20228;-81
2022/10/28 08:35:50;;;;;;;8.32;1.02;;;;;;;-145.69;51.69;52214.66;5156017;27;20203;-81
2022/10/28 08:38:17;;;;;;;7.47;2.00;;;;;;;-145.69;52.22;52222.59;5141491;27;20201;-82
2022/10/28 08:40:53;;;;;;;10.68;1.20;;;;;;;-145.69;49.92;52218.63;5135063;27;20651;-81
2022/10/28 08:43:27;;;;;;;5.72;1.50;;;;;;;-145.69;50.41;52216.66;5134875;27;20184;-82
2022/10/28 08:46:00;;;;;;;7.43;1.10;;;;;;;-145.69;50.56;52198.81;5134955;27;20623;-81
2022/10/28 08:48:31;;;;;;;11.13;1.40;;;;;;;-145.69;48.94;52224.56;5135010;27;20566;-81
2022/10/28 08:51:03;;;;;;;5.45;1.25;;;;;;;-145.69;44.79;52214.66;5134892;27;20197;-81
2022/10/28 08:53:34;;;;;;;11.40;1.35;;;;;;;-145.69;45.79;52210.72;5134572;27;20204;-81
2022/10/28 08:56:08;;;;;;;6.18;1.45;;;;;;;-145.69;46.34;52210.72;5134793;27;20197;-82
2022/10/28 08:58:38;;;;;;;10.45;1.67;;;;;;;-145.69;46.55;52194.88;5134931;27;20678;-82
2022/10/28 09:01:09;;;;;;;7.60;1.20;;;;;;;-145.69;44.99;52192.88;5134903;27;20197;-82
2022/10/28 09:03:41;;;;;;;10.88;1.50;;;;;;;-145.69;43.10;52179.03;5135246;27;20197;-82
2022/10/28 09:06:10;;;;;;;11.18;1.35;;;;;;;-145.69;45.50;52204.75;5155463;27;20196;-83
2022/10/28 09:08:41;;;;;;;9.35;1.70;;;;;;;-145.69;45.60;52192.88;5155363;27;20196;-82
2022/10/28 09:11:29;;;;;;;5.50;1.58;;;;;;;-145.69;45.50;52157.25;5155307;27;20196;-81
2022/10/28 09:14:11;;;;;;;5.45;1.48;;;;;;;-145.69;49.17;52198.81;5137535;27;20586;-82
2022/10/28 09:16:46;;;;;;;10.07;1.40;;;;;;;-145.69;47.26;52200.81;5153745;27;20740;-83
2022/10/28 09:19:30;;;;;;;6.90;1.60;;;;;;;-145.69;49.11;52167.13;5155828;27;20210;-83
2022/10/28 09:22:07;;;;;;;8.85;1.48;;;;;;;-145.69;49.28;52196.84;5155226;27;20196;-81
2022/10/28 09:24:45;;;;;;;7.05;1.83;;;;;;;-145.69;47.73;52198.81;5155028;27;20195;-81
2022/10/28 09:27:19;;;;;;;9.63;1.48;;;;;;;-145.69;47.07;52198.81;5150589;27;20275;-83
2022/10/28 09:29:53;;;;;;;6.70;1.38;;;;;;;-145.69;50.63;52177.03;5114218;27;20200;-85
2022/10/28 09:32:30;;;;;;;5.25;1.38;;;;;;;-145.69;48.56;52188.91;5113519;28;20219;-83
2022/10/28 09:35:02;;;;;;;5.05;1.40;;;;;;;-145.69;45.75;52171.09;5137775;27;20242;-83
2022/10/28 09:37:33;;;;;;;6.75;1.42;;;;;;;-145.69;48.19;52190.91;5141699;27;20585;-83
2022/10/28 09:40:04;;;;;;;13.20;1.88;;;;;;;-145.69;48.12;52141.41;5134190;27;20197;-83
2022/10/28 09:42:41;;;;;;;5.22;1.48;;;;;;;-145.69;44.77;52202.78;5133990;27;20196;-82
2022/10/28 09:45:13;;;;;;;6.40;1.73;;;;;;;-145.69;45.02;52184.97;5133994;27;20204;-83
2022/10/28 09:47:44;;;;;;;10.93;2.10;;;;;;;-145.69;46.24;52143.38;5133783;27;20280;-84
2022/10/28 09:50:17;;;;;;;10.13;1.60;;;;;;;-145.69;48.21;52200.81;5133889;27;20208;-83
2022/10/28 09:52:59;;;;;;;9.50;1.58;;;;;;;-145.69;46.01;52179.03;5133930;27;20208;-84
2022/10/28 09:55:25;;;;;;;10.90;1.92;;;;;;;-145.69;48.33;52159.22;5133830;27;20256;-83
2022/10/28 09:57:52;;;;;;;8.38;1.67;;;;;;;-145.69;47.00;52163.19;5133741;28;20559;-83
2022/10/28 10:00:21;;;;;;;7.13;1.48;;;;;;;-145.69;49.31;52163.19;5133754;28;20196;-84
2022/10/28 10:02:56;;;;;;;3.75;1.45;;;;;;;-145.69;45.85;52161.19;5134155;28;20193;-83
2022/10/28 10:05:25;;;;;;;9.40;1.60;;;;;;;-145.69;44.94;52159.22;5133718;28;20731;-82
2022/10/28 10:07:57;;;;;;;10.73;1.40;;;;;;;-145.69;41.80;52163.19;5148658;27;20200;-83
2022/10/28 10:10:27;;;;;;;8.00;1.50;;;;;;;-145.69;42.44;52151.28;5154238;27;20721;-83
2022/10/28 10:12:58;;;;;;;5.20;1.23;;;;;;;-145.69;41.88;52135.47;5153893;27;20672;-83
2022/10/28 10:15:29;;;;;;;4.65;1.35;;;;;;;-145.69;40.72;52175.06;5133130;28;20578;-83
2022/10/28 10:17:58;;;;;;;5.35;1.55;;;;;;;-145.69;39.32;52151.28;5133325;28;20663;-83
2022/10/28 10:20:26;;;;;;;7.07;1.40;;;;;;;-145.69;42.82;52137.44;5133712;27;20556;-83
2022/10/28 10:22:52;;;;;;;9.60;1.55;;;;;;;-145.69;40.57;52135.47;5133563;27;20669;-83
2022/10/28 10:25:28;;;;;;;5.07;1.13;;;;;;;-145.69;41.45;52155.25;5132733;27;20754;-83
2022/10/28 10:28:01;;;;;;;9.02;1.75;;;;;;;-145.69;39.79;52133.47;5132242;27;20239;-83
2022/10/28 10:30:31;;;;;;;6.00;1.58;;;;;;;-145.69;46.07;52159.22;5133488;27;20200;-83
2022/10/28 10:32:58;;;;;;;12.18;1.70;;;;;;;-145.69;42.23;52129.50;5133425;28;20706;-83
2022/10/28 10:35:32;;;;;;;16.02;2.20;;;;;;;-145.69;45.11;52115.66;5132186;28;20224;-83
2022/10/28 10:38:03;;;;;;;9.27;1.73;;;;;;;-145.69;45.02;52157.25;5133598;27;20185;-83
2022/10/28 10:40:31;;;;;;;7.32;1.70;;;;;;;-145.69;40.19;52119.63;5134806;27;20197;-83
2022/10/28 10:43:20;;;;;;;11.75;1.67;;;;;;;-145.69;40.20;52143.38;5133876;27;20219;-83
2022/10/28 10:45:52;;;;;;;12.13;1.70;;;;;;;-145.69;43.81;52151.28;5135490;27;20288;-82
2022/10/28 10:48:19;;;;;;;10.95;1.85;;;;;;;-145.69;42.74;52135.47;5137977;27;20197;-84
2022/10/28 10:50:48;;;;;;;4.35;1.38;;;;;;;-145.69;43.68;52107.72;5138485;27;20273;-82
2022/10/28 10:53:25;;;;;;;6.78;1.63;;;;;;;-145.69;42.81;52111.69;5137907;27;20203;-82
2022/10/28 10:55:54;;;;;;;6.85;1.23;;;;;;;-145.69;44.66;52125.56;5138576;27;20216;-83
2022/10/28 10:58:24;;;;;;;8.88;1.52;;;;;;;-145.69;40.71;52127.53;5137404;27;20201;-83
2022/10/28 11:00:53;;;;;;;7.43;1.50;;;;;;;-145.69;42.95;52143.38;5140762;27;20548;-82
2022/10/28 11:03:23;;;;;;;7.18;1.55;;;;;;;-145.69;43.41;52087.94;5139213;27;20204;-82
2022/10/28 11:05:55;;;;;;;7.97;1.52;;;;;;;-145.69;37.77;52083.97;5137297;27;20200;-83
2022/10/28 11:08:36;;;;;;;8.98;1.67;;;;;;;-145.69;39.29;52089.91;5137236;27;20199;-83
2022/10/28 11:11:10;;;;;;;9.45;1.60;;;;;;;-145.69;38.33;52080.00;5155705;27;20200;-82
2022/10/28 11:13:37;;;;;;;12.23;1.80;;;;;;;-145.69;38.18;52091.88;5147504;27;20437;-82
2022/10/28 11:16:07;;;;;;;15.00;2.25;;;;;;;-145.69;39.27;52083.97;5137244;27;20678;-82
2022/10/28 11:18:42;;;;;;;9.00;1.90;;;;;;;-145.69;37.17;52109.72;5136948;27;20216;-82
2022/10/28 11:21:25;;;;;;;6.55;1.52;;;;;;;-145.69;39.77;52064.16;5136953;27;20222;-81
2022/10/28 11:24:05;;;;;;;10.15;1.77;;;;;;;-145.69;37.36;52091.88;5136887;27;20555;-82